Time;durP1;ratioP1;P1;durP2;ratioP2;P2;SDS_P1;SDS_P2;PMS_P1;PMS_P2;Temp;Humidity;BMP_temperature;BMP_pressure;BME280_temperature;BME280_humidity;BME280_pressure;Samples;Min_cycle;Max_cycle;Signal;HPM_P1;HPM_P2
2021/06/13 00:01:28;;;;;;;4.53;3.00;;;24.90;42.70;;;;;;5093384;28;20028;-70
2021/06/13 00:03:54;;;;;;;3.38;2.63;;;24.90;42.70;;;;;;5094250;28;20028;-70
2021/06/13 00:06:20;;;;;;;6.25;2.60;;;24.90;42.90;;;;;;5113019;28;20038;-70
2021/06/13 00:08:46;;;;;;;3.17;2.45;;;24.80;42.30;;;;;;5113260;28;20024;-70
2021/06/13 00:11:12;;;;;;;3.53;2.80;;;24.80;42.40;;;;;;5112831;28;20389;-70
2021/06/13 00:13:38;;;;;;;3.53;2.60;;;24.70;42.20;;;;;;5113491;28;20032;-70
2021/06/13 00:16:05;;;;;;;3.33;2.30;;;24.60;42.20;;;;;;5113372;28;20066;-70
2021/06/13 00:18:32;;;;;;;3.13;2.38;;;24.50;41.50;;;;;;5102594;28;20027;-70
2021/06/13 00:20:58;;;;;;;6.97;2.40;;;24.40;41.90;;;;;;5093125;28;20024;-70
2021/06/13 00:23:24;;;;;;;2.20;1.95;;;24.40;42.00;;;;;;5093027;28;20027;-70
2021/06/13 00:25:50;;;;;;;3.78;2.20;;;24.30;42.30;;;;;;5092654;28;20103;-70
2021/06/13 00:28:16;;;;;;;3.03;2.67;;;24.20;42.40;;;;;;5091861;28;20377;-70
2021/06/13 00:30:42;;;;;;;2.85;2.33;;;24.20;42.60;;;;;;5097015;28;20091;-70
2021/06/13 00:33:08;;;;;;;3.10;2.10;;;24.10;42.60;;;;;;5103979;28;20044;-70
2021/06/13 00:35:34;;;;;;;4.75;2.08;;;24.00;42.80;;;;;;5102234;28;20159;-70
2021/06/13 00:38:00;;;;;;;2.50;2.30;;;24.00;43.00;;;;;;5110819;28;20537;-70
2021/06/13 00:40:27;;;;;;;3.80;2.25;;;23.90;42.80;;;;;;5108361;28;20095;-70
2021/06/13 00:42:54;;;;;;;5.82;2.42;;;23.90;43.00;;;;;;5091833;28;20032;-70
2021/06/13 00:45:21;;;;;;;2.65;2.45;;;23.80;43.20;;;;;;5092956;28;20028;-70
2021/06/13 00:47:47;;;;;;;3.85;2.97;;;23.70;43.30;;;;;;5093228;28;20030;-70
2021/06/13 00:50:16;;;;;;;2.75;2.33;;;23.70;43.20;;;;;;5092778;28;20043;-70
2021/06/13 00:52:42;;;;;;;6.32;3.53;;;23.60;43.40;;;;;;5091560;28;20549;-70
2021/06/13 00:55:09;;;;;;;2.58;2.05;;;23.60;43.50;;;;;;5092882;28;20123;-70
2021/06/13 00:57:35;;;;;;;2.80;2.10;;;23.50;43.60;;;;;;5092803;28;20025;-70
2021/06/13 01:00:01;;;;;;;2.38;2.17;;;23.60;43.80;;;;;;5092852;28;20027;-70
2021/06/13 01:02:26;;;;;;;3.78;2.00;;;23.50;43.80;;;;;;5095827;28;20016;-69
2021/06/13 01:04:52;;;;;;;2.80;2.17;;;23.50;43.90;;;;;;5113130;28;20565;-70
2021/06/13 01:07:30;;;;;;;5.45;2.55;;;23.50;44.20;;;;;;5115427;28;20028;-70
2021/06/13 01:10:03;;;;;;;2.67;2.42;;;23.50;43.70;;;;;;5117283;28;20027;-70
2021/06/13 01:12:36;;;;;;;3.65;2.53;;;23.50;43.50;;;;;;5114952;28;20101;-70
2021/06/13 01:15:12;;;;;;;7.30;3.85;;;23.40;43.30;;;;;;5116584;28;20019;-70
2021/06/13 01:17:50;;;;;;;4.22;2.30;;;23.40;43.40;;;;;;5113613;28;20032;-69
2021/06/13 01:20:31;;;;;;;3.60;2.58;;;23.40;43.40;;;;;;5096752;28;20020;-70
2021/06/13 01:23:04;;;;;;;4.60;2.30;;;23.40;43.60;;;;;;5096587;28;20027;-70
2021/06/13 01:25:44;;;;;;;2.35;2.15;;;23.40;43.80;;;;;;5109850;28;20080;-70
2021/06/13 01:28:34;;;;;;;2.90;2.38;;;23.30;43.70;;;;;;5116973;28;20453;-70
2021/06/13 01:31:03;;;;;;;5.65;2.30;;;23.30;44.00;;;;;;5111113;28;20131;-70
2021/06/13 01:33:31;;;;;;;4.38;2.42;;;23.20;43.70;;;;;;5096227;28;20055;-70
2021/06/13 01:36:00;;;;;;;2.45;2.00;;;23.10;43.90;;;;;;5093851;28;20080;-70
2021/06/13 01:38:26;;;;;;;3.30;2.60;;;23.10;44.00;;;;;;5096413;28;20019;-69
2021/06/13 01:40:53;;;;;;;2.33;2.13;;;23.00;44.10;;;;;;5110966;28;20016;-70
2021/06/13 01:43:22;;;;;;;4.70;2.72;;;23.00;44.00;;;;;;5115500;28;20766;-70
2021/06/13 01:45:53;;;;;;;4.00;2.47;;;22.90;44.10;;;;;;5116261;28;20035;-70
2021/06/13 01:48:19;;;;;;;2.80;2.30;;;22.90;44.50;;;;;;5113825;28;20050;-70
2021/06/13 01:50:45;;;;;;;3.35;2.72;;;22.90;44.90;;;;;;5115986;28;20048;-70
2021/06/13 01:53:13;;;;;;;3.05;2.15;;;22.80;45.00;;;;;;5116387;28;20557;-70
2021/06/13 01:55:44;;;;;;;2.75;2.13;;;22.80;45.00;;;;;;5116357;27;20032;-70
2021/06/13 01:58:13;;;;;;;2.20;2.00;;;22.70;45.00;;;;;;5115098;28;20153;-69
2021/06/13 02:00:39;;;;;;;2.85;2.20;;;22.70;45.10;;;;;;5116344;28;20023;-70
2021/06/13 02:03:06;;;;;;;2.17;1.80;;;22.60;45.30;;;;;;5116203;28;20077;-70
2021/06/13 02:05:33;;;;;;;3.17;2.53;;;22.50;45.30;;;;;;5116197;28;20027;-70
2021/06/13 02:08:00;;;;;;;3.65;2.50;;;22.50;45.60;;;;;;5110992;27;20032;-69
2021/06/13 02:10:28;;;;;;;3.67;3.03;;;22.40;45.80;;;;;;5095734;28;20031;-70
2021/06/13 02:12:55;;;;;;;3.03;2.35;;;22.30;46.10;;;;;;5105287;28;20503;-70
2021/06/13 02:15:24;;;;;;;2.30;2.10;;;22.20;46.20;;;;;;5115974;28;20031;-69
2021/06/13 02:17:51;;;;;;;4.13;2.50;;;22.10;46.10;;;;;;5110597;28;20474;-70
2021/06/13 02:20:24;;;;;;;5.22;2.60;;;22.00;46.30;;;;;;5095593;28;20036;-69
2021/06/13 02:22:52;;;;;;;4.65;2.50;;;22.00;47.00;;;;;;5093898;28;20111;-70
2021/06/13 02:25:22;;;;;;;4.30;2.75;;;22.00;47.20;;;;;;5094731;28;20024;-70
2021/06/13 02:27:53;;;;;;;11.98;3.45;;;22.00;47.60;;;;;;5094779;28;20035;-69
2021/06/13 02:30:21;;;;;;;3.33;2.42;;;22.00;47.50;;;;;;5095475;28;20030;-69
2021/06/13 02:32:48;;;;;;;9.48;3.40;;;22.00;47.50;;;;;;5095282;28;20024;-70
2021/06/13 02:35:16;;;;;;;4.60;2.15;;;22.00;47.50;;;;;;5095105;28;20028;-70
2021/06/13 02:37:43;;;;;;;9.85;2.95;;;22.00;47.50;;;;;;5094857;28;20381;-69
2021/06/13 02:40:12;;;;;;;6.28;2.80;;;22.00;47.40;;;;;;5094517;28;20082;-69
2021/06/13 02:42:38;;;;;;;6.28;2.60;;;22.00;47.20;;;;;;5095145;28;20050;-69
2021/06/13 02:45:12;;;;;;;3.97;2.50;;;22.00;47.30;;;;;;5095171;28;20051;-69
2021/06/13 02:47:38;;;;;;;8.50;2.75;;;22.00;47.70;;;;;;5095512;28;20073;-70
2021/06/13 02:50:09;;;;;;;5.60;2.70;;;22.10;48.00;;;;;;5102760;28;20484;-70
2021/06/13 02:52:41;;;;;;;6.18;3.45;;;22.10;48.20;;;;;;5115444;28;20024;-70
2021/06/13 02:55:12;;;;;;;4.70;2.90;;;22.10;48.60;;;;;;5114056;28;20034;-69
2021/06/13 02:57:44;;;;;;;2.50;2.30;;;22.10;47.70;;;;;;5115523;28;20022;-69
2021/06/13 03:00:11;;;;;;;2.50;2.30;;;22.10;47.60;;;;;;5115313;28;20028;-69
2021/06/13 03:02:43;;;;;;;2.85;1.98;;;22.10;47.40;;;;;;5115217;28;20376;-70
2021/06/13 03:05:11;;;;;;;3.38;2.35;;;22.10;47.20;;;;;;5114844;28;20023;-69
2021/06/13 03:07:38;;;;;;;5.28;2.17;;;22.20;47.10;;;;;;5114684;28;20019;-70
2021/06/13 03:10:07;;;;;;;4.28;2.72;;;22.20;47.00;;;;;;5114725;28;20580;-70
2021/06/13 03:12:34;;;;;;;3.40;3.10;;;22.10;47.40;;;;;;5094664;28;20024;-69
2021/06/13 03:15:01;;;;;;;3.22;2.50;;;22.10;47.70;;;;;;5094536;28;20024;-69
2021/06/13 03:17:28;;;;;;;4.93;2.95;;;22.10;48.10;;;;;;5094785;28;20051;-70
2021/06/13 03:19:55;;;;;;;5.97;2.53;;;22.00;48.20;;;;;;5094514;28;20464;-69
2021/06/13 03:22:21;;;;;;;3.97;3.03;;;22.00;48.30;;;;;;5094008;28;20020;-70
2021/06/13 03:24:49;;;;;;;4.30;3.17;;;22.00;49.10;;;;;;5093116;28;20081;-70
2021/06/13 03:27:17;;;;;;;5.80;2.40;;;21.90;48.30;;;;;;5093923;28;20420;-70
2021/06/13 03:29:45;;;;;;;3.67;2.50;;;22.00;48.40;;;;;;5093616;28;20031;-69
2021/06/13 03:32:12;;;;;;;3.88;2.45;;;21.90;48.30;;;;;;5098812;28;20084;-69
2021/06/13 03:34:43;;;;;;;5.32;3.05;;;21.90;48.00;;;;;;5092707;28;20473;-70
2021/06/13 03:37:10;;;;;;;4.97;2.67;;;21.90;47.50;;;;;;5092774;28;20039;-70
2021/06/13 03:39:37;;;;;;;5.25;2.58;;;21.90;47.60;;;;;;5093983;28;20462;-70
2021/06/13 03:42:05;;;;;;;3.38;2.78;;;21.90;47.50;;;;;;5094027;28;20028;-70
2021/06/13 03:44:33;;;;;;;3.13;2.30;;;21.90;47.30;;;;;;5093890;28;20063;-70
2021/06/13 03:46:59;;;;;;;3.97;2.60;;;21.90;47.20;;;;;;5093922;28;20021;-70
2021/06/13 03:49:25;;;;;;;4.18;2.60;;;21.90;46.90;;;;;;5111482;28;20036;-70
2021/06/13 03:51:52;;;;;;;3.38;2.15;;;21.90;46.80;;;;;;5094294;28;20048;-70
2021/06/13 03:54:18;;;;;;;5.88;2.50;;;21.90;46.80;;;;;;5109117;28;20100;-70
2021/06/13 03:56:46;;;;;;;9.35;2.92;;;21.90;47.00;;;;;;5113736;28;20024;-70
2021/06/13 03:59:16;;;;;;;5.32;2.70;;;22.00;46.90;;;;;;5114019;28;20065;-70
2021/06/13 04:01:44;;;;;;;3.42;2.75;;;22.00;47.00;;;;;;5112773;28;20015;-70
2021/06/13 04:04:11;;;;;;;2.30;1.98;;;22.00;47.00;;;;;;5109175;27;20079;-70
2021/06/13 04:06:39;;;;;;;8.82;2.65;;;22.00;47.00;;;;;;5093613;28;20544;-70
2021/06/13 04:09:05;;;;;;;3.55;2.30;;;22.00;47.10;;;;;;5095645;28;20027;-70
2021/06/13 04:11:32;;;;;;;3.97;2.45;;;22.00;47.10;;;;;;5114116;28;20028;-70
2021/06/13 04:14:00;;;;;;;2.60;2.40;;;22.00;47.20;;;;;;5113698;28;20047;-70
2021/06/13 04:16:26;;;;;;;4.68;2.63;;;22.00;47.20;;;;;;5113722;28;20019;-70
2021/06/13 04:18:52;;;;;;;7.03;2.28;;;22.00;47.30;;;;;;5096414;28;20032;-70
2021/06/13 04:21:19;;;;;;;8.35;2.53;;;22.10;47.20;;;;;;5092862;28;20023;-70
2021/06/13 04:23:46;;;;;;;5.68;2.90;;;22.10;47.60;;;;;;5104365;28;20015;-70
2021/06/13 04:26:18;;;;;;;4.20;2.50;;;22.20;47.70;;;;;;5113602;28;20388;-70
2021/06/13 04:28:45;;;;;;;6.28;3.75;;;22.20;47.80;;;;;;5113518;28;20054;-70
2021/06/13 04:31:13;;;;;;;7.35;2.72;;;22.20;47.70;;;;;;5106092;28;20024;-70
2021/06/13 04:33:41;;;;;;;5.18;2.42;;;22.20;47.60;;;;;;5093081;28;20028;-70
2021/06/13 04:36:08;;;;;;;5.45;2.53;;;22.30;47.60;;;;;;5093027;28;20027;-70
2021/06/13 04:38:34;;;;;;;4.82;2.47;;;22.30;47.80;;;;;;5093055;28;20019;-70
2021/06/13 04:41:01;;;;;;;8.55;2.58;;;22.30;47.60;;;;;;5096242;28;20026;-70
2021/06/13 04:43:27;;;;;;;15.13;3.17;;;22.40;47.70;;;;;;5092993;28;20109;-70
2021/06/13 04:45:53;;;;;;;13.60;3.67;;;22.40;47.80;;;;;;5092976;28;20048;-70
2021/06/13 04:48:19;;;;;;;5.63;2.65;;;22.40;47.70;;;;;;5093111;28;20529;-70
2021/06/13 04:50:45;;;;;;;4.47;2.55;;;22.40;47.60;;;;;;5095983;28;20040;-70
2021/06/13 04:56:18;;;;;;;3.40;2.10;;;22.40;47.30;;;;;;5069393;28;20036;-70
2021/06/13 04:58:43;;;;;;;2.92;2.28;;;22.50;47.30;;;;;;5092834;28;20028;-72
2021/06/13 05:01:09;;;;;;;4.43;2.58;;;22.50;46.90;;;;;;5101215;28;20112;-70
2021/06/13 05:03:35;;;;;;;5.80;2.38;;;22.50;46.80;;;;;;5113156;28;20140;-70
2021/06/13 05:06:02;;;;;;;3.05;1.85;;;22.40;46.50;;;;;;5113136;28;20031;-70
2021/06/13 05:08:28;;;;;;;3.55;1.95;;;22.40;46.60;;;;;;5113032;28;20107;-70
2021/06/13 05:10:54;;;;;;;2.85;2.20;;;22.40;46.70;;;;;;5113068;28;20028;-70
2021/06/13 05:13:20;;;;;;;9.63;2.60;;;22.40;45.90;;;;;;5112986;28;20481;-70
2021/06/13 05:15:46;;;;;;;3.30;2.10;;;22.40;46.10;;;;;;5112569;28;20084;-70
2021/06/13 05:18:12;;;;;;;5.78;2.25;;;22.40;46.20;;;;;;5102119;28;20028;-70
2021/06/13 05:20:38;;;;;;;3.95;1.83;;;22.40;45.80;;;;;;5092612;28;20020;-70
2021/06/13 05:23:06;;;;;;;3.30;2.00;;;22.40;45.60;;;;;;5092675;28;20063;-70
2021/06/13 05:25:34;;;;;;;3.55;1.92;;;22.40;45.20;;;;;;5092695;28;20020;-70
2021/06/13 05:28:01;;;;;;;4.55;2.10;;;22.40;44.80;;;;;;5092598;28;20077;-70
2021/06/13 05:30:29;;;;;;;5.47;2.03;;;22.40;44.50;;;;;;5092520;28;20047;-70
2021/06/13 05:32:55;;;;;;;8.45;2.10;;;22.50;44.20;;;;;;5092517;28;20385;-70
2021/06/13 05:35:22;;;;;;;8.75;1.77;;;22.50;44.10;;;;;;5096964;28;20477;-70
2021/06/13 05:37:48;;;;;;;2.50;1.80;;;22.50;44.30;;;;;;5111587;28;20465;-70
2021/06/13 05:40:15;;;;;;;3.78;2.33;;;22.50;43.70;;;;;;5112781;28;20069;-70
2021/06/13 05:42:41;;;;;;;3.75;1.80;;;22.50;43.70;;;;;;5109975;28;20750;-70
2021/06/13 05:45:09;;;;;;;3.22;1.75;;;22.60;43.90;;;;;;5092407;28;20099;-70
2021/06/13 05:47:35;;;;;;;5.43;2.25;;;22.60;43.70;;;;;;5092290;28;20485;-70
2021/06/13 05:50:01;;;;;;;6.53;1.80;;;22.60;43.60;;;;;;5092207;28;20115;-70
2021/06/13 05:52:27;;;;;;;2.42;1.70;;;22.60;43.60;;;;;;5093924;28;20024;-70
2021/06/13 05:54:57;;;;;;;2.55;1.77;;;22.70;43.80;;;;;;5094652;28;20512;-70
2021/06/13 05:57:30;;;;;;;4.85;2.08;;;22.70;43.60;;;;;;5096331;28;20026;-70
2021/06/13 06:00:03;;;;;;;5.68;2.08;;;22.80;43.50;;;;;;5095992;28;20036;-70
2021/06/13 06:02:29;;;;;;;3.70;1.65;;;22.80;42.90;;;;;;5096841;28;20108;-70
2021/06/13 06:04:54;;;;;;;3.03;1.73;;;22.90;43.00;;;;;;5094547;28;20477;-70
2021/06/13 06:07:20;;;;;;;3.67;1.50;;;22.90;42.80;;;;;;5108362;28;20366;-70
2021/06/13 06:09:46;;;;;;;3.72;1.58;;;22.90;42.90;;;;;;5115797;28;20073;-70
2021/06/13 06:12:12;;;;;;;5.65;1.70;;;22.90;42.90;;;;;;5115584;28;20103;-70
2021/06/13 06:14:40;;;;;;;3.53;1.50;;;23.00;42.60;;;;;;5115861;28;20073;-70
2021/06/13 06:17:05;;;;;;;6.80;1.80;;;23.00;41.60;;;;;;5113731;28;20020;-70
2021/06/13 06:19:31;;;;;;;4.07;1.60;;;23.10;41.80;;;;;;5095539;28;20035;-70
2021/06/13 06:21:57;;;;;;;4.45;1.80;;;23.10;41.90;;;;;;5095476;28;20031;-70
2021/06/13 06:24:23;;;;;;;2.88;1.33;;;23.10;41.10;;;;;;5093940;28;20024;-70
2021/06/13 06:26:49;;;;;;;10.73;1.80;;;23.10;41.30;;;;;;5095390;28;20056;-70
2021/06/13 06:29:15;;;;;;;6.38;2.03;;;23.10;40.80;;;;;;5095308;28;20030;-70
2021/06/13 06:31:42;;;;;;;4.07;1.33;;;23.20;40.90;;;;;;5095254;28;20034;-70
2021/06/13 06:34:07;;;;;;;6.18;1.17;;;23.20;40.70;;;;;;5094989;28;20099;-70
2021/06/13 06:36:33;;;;;;;3.15;1.63;;;23.30;41.00;;;;;;5095221;28;20103;-70
2021/06/13 06:38:59;;;;;;;5.85;2.33;;;23.30;40.50;;;;;;5101653;28;20393;-70
2021/06/13 06:41:25;;;;;;;3.83;1.40;;;23.40;40.00;;;;;;5108506;28;20016;-70
2021/06/13 06:43:52;;;;;;;7.70;1.73;;;23.40;39.50;;;;;;5094861;28;20422;-69
2021/06/13 06:46:18;;;;;;;2.42;1.27;;;23.40;38.90;;;;;;5107331;28;20024;-69
2021/06/13 06:48:43;;;;;;;6.07;2.03;;;23.40;39.20;;;;;;5100901;28;20057;-69
2021/06/13 06:51:10;;;;;;;3.78;1.40;;;23.40;38.40;;;;;;5094660;28;20079;-69
2021/06/13 06:53:36;;;;;;;2.13;1.13;;;23.40;38.50;;;;;;5098546;28;20020;-69
2021/06/13 06:56:02;;;;;;;1.83;1.10;;;23.40;38.50;;;;;;5115245;28;20042;-69
2021/06/13 06:58:27;;;;;;;5.65;1.80;;;23.50;38.90;;;;;;5115156;28;20457;-70
2021/06/13 07:00:53;;;;;;;4.97;1.50;;;23.50;38.30;;;;;;5113006;28;20030;-69
2021/06/13 07:03:19;;;;;;;2.42;1.40;;;23.60;38.50;;;;;;5108267;28;20030;-69
2021/06/13 07:05:45;;;;;;;4.28;1.60;;;23.70;38.00;;;;;;5112937;28;20049;-70
2021/06/13 07:08:11;;;;;;;3.35;1.80;;;23.80;37.40;;;;;;5112082;28;20055;-70
2021/06/13 07:10:36;;;;;;;5.10;1.48;;;23.90;37.00;;;;;;5114631;28;20073;-69
2021/06/13 07:13:02;;;;;;;4.03;1.52;;;23.90;37.30;;;;;;5114432;28;20473;-69
2021/06/13 07:15:28;;;;;;;5.25;1.80;;;24.10;37.50;;;;;;5114775;28;20030;-70
2021/06/13 07:17:54;;;;;;;7.32;1.42;;;24.20;36.60;;;;;;5107557;28;20028;-70
2021/06/13 07:20:20;;;;;;;3.58;1.80;;;24.30;36.80;;;;;;5092890;28;20060;-69
2021/06/13 07:22:46;;;;;;;2.88;1.38;;;24.20;36.40;;;;;;5093019;28;20020;-70
2021/06/13 07:25:13;;;;;;;5.90;1.65;;;24.30;36.40;;;;;;5093450;28;20534;-70
2021/06/13 07:27:40;;;;;;;5.35;2.17;;;24.30;35.70;;;;;;5098845;28;20031;-69
2021/06/13 07:30:12;;;;;;;3.42;1.40;;;24.20;35.70;;;;;;5114474;28;20023;-70
2021/06/13 07:32:38;;;;;;;4.03;1.23;;;24.20;35.80;;;;;;5104235;28;20028;-69
2021/06/13 07:35:06;;;;;;;5.38;1.38;;;24.20;35.90;;;;;;5093889;28;20038;-70
2021/06/13 07:37:31;;;;;;;2.53;1.33;;;24.10;36.00;;;;;;5094072;28;20381;-70
2021/06/13 07:39:57;;;;;;;5.15;1.92;;;24.20;36.20;;;;;;5092758;28;20028;-69
2021/06/13 07:42:23;;;;;;;2.38;1.38;;;24.20;35.10;;;;;;5094141;28;20091;-69
2021/06/13 07:44:51;;;;;;;3.97;1.77;;;24.20;35.40;;;;;;5094072;28;20055;-70
2021/06/13 07:47:17;;;;;;;2.88;1.30;;;24.20;35.50;;;;;;5092775;28;20077;-70
2021/06/13 07:49:43;;;;;;;3.25;1.60;;;24.20;34.80;;;;;;5093607;28;20024;-69
2021/06/13 07:52:09;;;;;;;17.02;1.40;;;24.20;34.30;;;;;;5093869;28;20400;-69
2021/06/13 07:54:35;;;;;;;5.78;1.48;;;24.20;34.60;;;;;;5093680;28;20389;-69
2021/06/13 07:57:01;;;;;;;2.50;1.27;;;24.20;34.20;;;;;;5093803;28;20020;-69
2021/06/13 07:59:29;;;;;;;4.88;1.40;;;24.10;33.60;;;;;;5094064;28;20020;-70
2021/06/13 08:01:55;;;;;;;7.57;1.40;;;24.10;33.90;;;;;;5092618;28;20093;-69
2021/06/13 08:04:21;;;;;;;4.20;1.80;;;24.00;34.20;;;;;;5107983;28;20031;-69
2021/06/13 08:06:47;;;;;;;6.22;1.52;;;24.00;34.10;;;;;;5114052;28;20102;-70
2021/06/13 08:09:13;;;;;;;2.70;1.70;;;24.10;35.10;;;;;;5114062;28;20051;-70
2021/06/13 08:11:39;;;;;;;4.25;1.33;;;24.10;34.40;;;;;;5113912;28;20061;-69
2021/06/13 08:14:05;;;;;;;4.15;1.50;;;24.10;34.40;;;;;;5113789;28;20032;-69
2021/06/13 08:16:31;;;;;;;3.65;1.48;;;24.10;33.70;;;;;;5113508;28;20051;-69
2021/06/13 08:18:57;;;;;;;7.20;1.50;;;24.20;34.20;;;;;;5092882;28;20016;-70
2021/06/13 08:21:22;;;;;;;4.90;1.45;;;24.10;33.70;;;;;;5091432;28;20030;-70
2021/06/13 08:23:48;;;;;;;3.17;1.40;;;24.20;33.90;;;;;;5107509;28;20027;-70
2021/06/13 08:26:16;;;;;;;3.83;1.50;;;24.20;33.80;;;;;;5097687;28;20110;-70
2021/06/13 08:28:42;;;;;;;6.43;1.35;;;24.20;33.70;;;;;;5098317;28;20016;-70
2021/06/13 08:31:08;;;;;;;3.90;1.58;;;24.30;33.80;;;;;;5100070;28;20430;-68
2021/06/13 08:33:34;;;;;;;5.45;1.45;;;24.30;32.60;;;;;;5093727;28;20020;-71
2021/06/13 08:35:59;;;;;;;2.10;1.20;;;24.40;32.80;;;;;;5092996;28;20032;-69
2021/06/13 08:38:25;;;;;;;2.47;1.13;;;24.50;33.60;;;;;;5110203;28;20020;-69
2021/06/13 08:40:51;;;;;;;3.05;1.35;;;24.50;33.50;;;;;;5094618;28;20027;-69
2021/06/13 08:43:17;;;;;;;3.63;1.50;;;24.60;33.90;;;;;;5109384;28;20038;-69
2021/06/13 08:45:49;;;;;;;3.83;1.33;;;24.80;33.70;;;;;;5111085;28;20023;-68
2021/06/13 08:48:15;;;;;;;4.90;1.35;;;24.90;33.70;;;;;;5097729;28;20038;-69
2021/06/13 08:50:42;;;;;;;3.00;1.50;;;25.00;33.80;;;;;;5092305;28;20111;-69
2021/06/13 08:53:07;;;;;;;4.97;1.52;;;25.00;32.80;;;;;;5091475;28;20024;-69
2021/06/13 08:55:33;;;;;;;3.85;1.50;;;25.00;32.90;;;;;;5104348;28;20381;-69
2021/06/13 08:58:00;;;;;;;3.13;1.40;;;25.00;32.80;;;;;;5111641;28;20032;-69
2021/06/13 09:00:29;;;;;;;2.92;1.15;;;25.00;32.30;;;;;;5097109;28;20024;-70
2021/06/13 09:02:56;;;;;;;5.57;1.45;;;25.10;32.40;;;;;;5107658;28;20023;-70
2021/06/13 09:05:24;;;;;;;3.47;1.13;;;25.10;32.30;;;;;;5108874;28;20043;-70
2021/06/13 09:07:57;;;;;;;4.03;1.42;;;25.20;32.80;;;;;;5094829;28;20028;-70
2021/06/13 09:10:26;;;;;;;4.25;1.80;;;25.20;32.50;;;;;;5097563;28;20373;-70
2021/06/13 09:13:08;;;;;;;17.98;1.92;;;25.20;32.20;;;;;;5111000;28;20032;-70
2021/06/13 09:15:42;;;;;;;6.10;1.48;;;25.30;32.30;;;;;;5110753;28;20477;-70
2021/06/13 09:18:09;;;;;;;4.10;1.65;;;25.30;31.70;;;;;;5099922;28;20028;-70
2021/06/13 09:20:35;;;;;;;5.00;1.50;;;25.20;31.70;;;;;;5105929;28;20028;-70
2021/06/13 09:23:14;;;;;;;4.72;1.65;;;25.20;31.60;;;;;;5111571;28;20016;-70
2021/06/13 09:25:42;;;;;;;5.18;1.40;;;25.20;31.90;;;;;;5113028;28;20499;-70
2021/06/13 09:28:12;;;;;;;10.77;2.05;;;25.30;32.00;;;;;;5108112;28;20035;-71
2021/06/13 09:30:41;;;;;;;12.55;2.00;;;25.30;31.90;;;;;;5111821;28;20472;-70
2021/06/13 09:33:14;;;;;;;8.63;1.45;;;25.30;32.80;;;;;;5105797;28;20032;-70
2021/06/13 09:35:42;;;;;;;3.17;1.73;;;25.30;32.00;;;;;;5110172;28;20028;-70
2021/06/13 09:38:17;;;;;;;15.20;3.03;;;25.30;31.70;;;;;;5113014;28;20026;-70
2021/06/13 09:40:52;;;;;;;7.03;1.55;;;25.20;32.00;;;;;;5113629;28;20077;-70
2021/06/13 09:43:21;;;;;;;5.45;1.67;;;25.30;32.10;;;;;;5110867;28;20011;-70
2021/06/13 09:45:50;;;;;;;18.50;1.98;;;25.30;32.20;;;;;;5114900;28;20637;-71
2021/06/13 09:48:17;;;;;;;3.65;1.38;;;25.30;31.30;;;;;;5104880;28;20027;-70
2021/06/13 09:50:46;;;;;;;4.10;1.60;;;25.30;31.00;;;;;;5104392;28;21709;-70
2021/06/13 09:53:32;;;;;;;11.73;2.22;;;25.30;31.60;;;;;;5095501;28;20059;-70
2021/06/13 09:56:22;;;;;;;4.57;1.73;;;25.30;31.70;;;;;;5095954;28;20089;-70
2021/06/13 09:58:51;;;;;;;10.93;1.85;;;25.30;31.90;;;;;;5102982;28;20040;-70
2021/06/13 10:01:18;;;;;;;6.18;1.63;;;25.30;31.90;;;;;;5111902;28;20116;-68
2021/06/13 10:03:47;;;;;;;2.92;1.50;;;25.40;31.90;;;;;;5102409;28;20359;-70
2021/06/13 10:06:14;;;;;;;7.60;1.63;;;25.50;32.20;;;;;;5100112;28;20021;-70
2021/06/13 10:08:42;;;;;;;3.63;1.98;;;25.60;31.60;;;;;;5098991;28;20012;-70
2021/06/13 10:11:09;;;;;;;3.78;1.52;;;25.70;31.60;;;;;;5113173;28;20381;-70
2021/06/13 10:13:50;;;;;;;7.20;2.03;;;25.70;31.00;;;;;;5103486;28;20426;-70
2021/06/13 10:16:30;;;;;;;5.75;2.47;;;25.70;31.40;;;;;;5111578;28;20026;-70
2021/06/13 10:19:05;;;;;;;3.95;2.50;;;25.80;31.30;;;;;;5106736;28;20504;-68
2021/06/13 10:21:35;;;;;;;4.68;1.90;;;25.80;30.80;;;;;;5107446;28;20031;-69
2021/06/13 10:24:05;;;;;;;6.30;2.10;;;25.80;30.80;;;;;;5113854;28;20110;-69
2021/06/13 10:26:32;;;;;;;3.90;1.70;;;25.80;31.10;;;;;;5100720;28;20015;-69
2021/06/13 10:28:58;;;;;;;4.32;2.08;;;25.80;31.40;;;;;;5112994;28;20500;-70
2021/06/13 10:31:23;;;;;;;7.25;2.47;;;25.80;31.50;;;;;;5107955;28;20031;-70
2021/06/13 10:33:49;;;;;;;4.05;1.65;;;25.90;31.10;;;;;;5095580;28;20096;-70
2021/06/13 10:36:15;;;;;;;5.72;1.92;;;26.00;30.60;;;;;;5095152;28;20027;-70
2021/06/13 10:38:42;;;;;;;3.95;1.67;;;25.90;30.10;;;;;;5113887;28;20020;-70
2021/06/13 10:41:08;;;;;;;6.15;1.90;;;25.90;30.60;;;;;;5111326;28;20016;-68
2021/06/13 10:43:34;;;;;;;5.53;1.60;;;25.90;31.20;;;;;;5107446;28;20024;-70
2021/06/13 10:46:24;;;;;;;3.20;1.45;;;25.80;30.30;;;;;;5111460;28;20028;-70
2021/06/13 10:48:51;;;;;;;4.80;1.52;;;25.80;30.40;;;;;;5101523;28;20019;-70
2021/06/13 10:51:27;;;;;;;6.57;1.92;;;25.80;30.60;;;;;;5108038;28;20096;-70
2021/06/13 10:53:54;;;;;;;4.50;1.80;;;25.70;30.80;;;;;;5109359;28;20028;-70
2021/06/13 10:56:28;;;;;;;4.32;1.50;;;25.70;31.20;;;;;;5114588;28;20103;-70
2021/06/13 10:59:02;;;;;;;5.15;1.40;;;25.60;30.70;;;;;;5112751;28;20469;-70
2021/06/13 11:01:29;;;;;;;2.90;1.45;;;25.60;30.90;;;;;;5114696;28;20027;-70
2021/06/13 11:04:05;;;;;;;4.22;1.60;;;25.60;30.10;;;;;;5114916;28;20350;-70
2021/06/13 11:06:48;;;;;;;3.17;2.08;;;25.50;30.10;;;;;;5114423;28;20022;-70
2021/06/13 11:09:15;;;;;;;2.60;1.27;;;25.50;30.40;;;;;;5114586;28;20016;-70
2021/06/13 11:11:45;;;;;;;2.92;1.65;;;25.50;30.50;;;;;;5114823;28;20040;-70
2021/06/13 11:14:30;;;;;;;2.67;1.10;;;25.50;30.30;;;;;;5114309;28;20027;-70
2021/06/13 11:16:58;;;;;;;5.55;1.20;;;25.50;31.20;;;;;;5114509;28;20030;-70
2021/06/13 11:19:36;;;;;;;2.85;1.33;;;25.50;30.10;;;;;;5105389;28;20031;-70
2021/06/13 11:22:17;;;;;;;5.55;1.73;;;25.50;30.00;;;;;;5110778;28;20028;-70
2021/06/13 11:24:52;;;;;;;2.90;1.40;;;25.50;29.40;;;;;;5099419;28;20047;-70
2021/06/13 11:27:18;;;;;;;4.22;1.35;;;25.50;30.00;;;;;;5112299;28;20028;-70
2021/06/13 11:29:54;;;;;;;8.77;1.40;;;25.50;30.00;;;;;;5113796;28;20069;-70
2021/06/13 11:32:50;;;;;;;6.15;1.50;;;25.50;29.80;;;;;;5112922;28;20481;-70
2021/06/13 11:35:23;;;;;;;3.45;1.30;;;25.40;29.90;;;;;;5108148;28;20063;-71
2021/06/13 11:38:14;;;;;;;2.78;1.23;;;25.40;30.20;;;;;;5111299;27;20032;-70
2021/06/13 11:40:49;;;;;;;3.35;1.63;;;25.50;30.20;;;;;;5108382;28;20076;-71
2021/06/13 11:43:17;;;;;;;2.92;1.38;;;25.40;30.20;;;;;;5109352;28;20023;-69
2021/06/13 11:45:58;;;;;;;6.40;1.63;;;25.50;30.10;;;;;;5110414;28;20028;-69
2021/06/13 11:48:28;;;;;;;4.38;1.38;;;25.40;30.30;;;;;;5113935;28;20020;-69
2021/06/13 11:51:19;;;;;;;4.50;1.48;;;25.40;30.20;;;;;;5100040;28;20035;-70
2021/06/13 11:53:48;;;;;;;5.55;1.20;;;25.50;29.80;;;;;;5107579;28;20490;-70
2021/06/13 11:56:32;;;;;;;4.43;1.52;;;25.40;29.60;;;;;;5114094;28;20355;-70
2021/06/13 11:59:17;;;;;;;;;;;25.40;29.40;;;;;;5103187;28;20378;-70
2021/06/13 12:01:46;;;;;;;6.00;1.35;;;25.50;30.00;;;;;;5102076;28;19915;-70
2021/06/13 12:04:15;;;;;;;4.38;1.23;;;25.40;29.20;;;;;;5113341;27;20035;-70
2021/06/13 12:06:42;;;;;;;6.95;1.73;;;25.50;29.80;;;;;;5112783;28;20027;-70
2021/06/13 12:09:11;;;;;;;6.82;1.27;;;25.50;29.60;;;;;;5113898;28;20417;-70
2021/06/13 12:11:51;;;;;;;6.85;1.25;;;25.50;29.60;;;;;;5114002;28;20028;-70
2021/06/13 12:14:35;;;;;;;6.07;1.30;;;25.60;29.70;;;;;;5112621;28;20385;-70
2021/06/13 12:17:05;;;;;;;3.90;1.50;;;25.60;29.60;;;;;;5093448;28;20424;-69
2021/06/13 12:19:39;;;;;;;7.30;1.25;;;25.70;29.10;;;;;;5092052;28;20024;-70
2021/06/13 12:22:14;;;;;;;;;;;25.70;29.40;;;;;;5093917;28;20016;-70
2021/06/13 12:27:24;;;;;;;3.95;1.10;;;25.70;28.40;;;;;;5093288;28;20024;-70
2021/06/13 12:30:00;;;;;;;5.22;1.17;;;25.60;27.80;;;;;;5092063;28;20028;-70
2021/06/13 12:32:26;;;;;;;3.28;1.20;;;25.60;28.20;;;;;;5093220;28;20062;-70
2021/06/13 12:35:05;;;;;;;5.70;2.60;;;25.70;28.50;;;;;;5093111;28;20028;-70
2021/06/13 12:37:31;;;;;;;7.90;1.60;;;25.70;29.10;;;;;;5091949;28;20027;-70
2021/06/13 12:40:05;;;;;;;4.00;1.60;;;25.70;28.90;;;;;;5093197;28;20024;-70
2021/06/13 12:42:31;;;;;;;4.85;1.58;;;25.80;29.00;;;;;;5093079;28;20020;-70
2021/06/13 12:45:11;;;;;;;2.33;1.00;;;25.80;28.80;;;;;;5093587;28;20161;-70
2021/06/13 12:47:39;;;;;;;3.28;1.38;;;25.80;28.90;;;;;;5093171;28;20023;-70
2021/06/13 12:50:07;;;;;;;2.70;1.10;;;25.90;29.00;;;;;;5092847;28;20063;-70
2021/06/13 12:52:36;;;;;;;5.15;1.15;;;26.00;28.80;;;;;;5093031;28;20078;-70
2021/06/13 12:55:07;;;;;;;2.97;1.13;;;26.00;28.50;;;;;;5092966;28;20047;-70
2021/06/13 12:57:35;;;;;;;2.20;1.45;;;26.10;28.30;;;;;;5105728;28;20027;-70
2021/06/13 13:00:03;;;;;;;7.80;1.20;;;26.00;28.10;;;;;;5113307;28;20047;-70
2021/06/13 13:02:29;;;;;;;4.10;1.60;;;26.00;28.40;;;;;;5115089;28;20103;-71